Terminal Aerodrome Forecast
Issued by NWS Boise, ID

Home | Current Version | Previous Version | Text Only | Print | Product List | Glossary On
Versions: 1 2 3 4 5 6 7 8 9 10 11 12 13 14 15 16 17 18 19 20 21 22 23 24 25 26 27 28 29 30 31 32 33 34 35
000
FTUS45 KBOI 161749 CCB
TAFBOI
TAF COR
KBOI 161749Z 1618/1718 30006KT P6SM BKN200
      TEMPO 1618/1619 02007KT P6SM -SHRA BKN090 OVC150
     FM162000 29008KT P6SM FEW150
     FM170200 13007KT P6SM FEW250
     FM170900 14005KT P6SM BKN250=

USA.gov is the U.S. government's official web portal to all federal, state and local government web resources and services.